createdAt,value
2023-03-11T00:04:50.598Z,1.15
2023-03-11T00:09:52.213Z,1.55
2023-03-11T00:14:53.826Z,3.53
2023-03-11T00:19:55.456Z,2.30
2023-03-11T00:24:57.079Z,3.03
2023-03-11T00:29:58.672Z,2.53
2023-03-11T00:35:00.839Z,2.05
2023-03-11T00:40:02.955Z,1.90
2023-03-11T00:45:04.998Z,1.48
2023-03-11T00:50:08.014Z,3.10
2023-03-11T00:55:11.291Z,5.95
2023-03-11T01:00:18.205Z,2.10
2023-03-11T01:05:22.628Z,2.00
2023-03-11T01:10:24.475Z,1.63
2023-03-11T01:15:31.656Z,2.20
2023-03-11T01:20:35.342Z,3.08
2023-03-11T01:25:37.096Z,1.55
2023-03-11T01:30:41.415Z,1.67
2023-03-11T01:35:43.928Z,3.85
2023-03-11T01:40:48.582Z,2.53
2023-03-11T01:45:51.761Z,1.67
2023-03-11T01:50:57.920Z,1.23
2023-03-11T01:56:01.478Z,1.42
2023-03-11T02:01:04.209Z,1.52
2023-03-11T02:06:10.256Z,1.50
2023-03-11T02:11:19.541Z,1.60
2023-03-11T02:16:21.776Z,2.40
2023-03-11T02:21:29.465Z,2.97
2023-03-11T02:26:40.731Z,1.92
2023-03-11T02:31:44.045Z,1.85
2023-03-11T02:36:47.461Z,2.00
2023-03-11T02:41:50.182Z,1.83
2023-03-11T02:46:53.192Z,4.65
2023-03-11T02:51:56.253Z,1.67
2023-03-11T02:56:58.474Z,2.08
2023-03-11T03:02:03.752Z,2.63
2023-03-11T03:07:06.607Z,2.30
2023-03-11T03:12:08.290Z,2.67
2023-03-11T03:17:11.563Z,4.45
2023-03-11T03:22:14.268Z,4.97
2023-03-11T03:27:16.794Z,4.65
2023-03-11T03:32:18.614Z,4.60
2023-03-11T03:37:20.664Z,5.00
2023-03-11T03:42:25.233Z,4.68
2023-03-11T03:47:27.357Z,5.85
2023-03-11T03:52:29.130Z,6.55
2023-03-11T03:57:31.200Z,6.28
2023-03-11T04:02:32.983Z,6.75
2023-03-11T04:07:36.454Z,7.50
2023-03-11T04:12:40.238Z,9.93
2023-03-11T04:17:43.292Z,9.45
2023-03-11T04:22:44.890Z,7.75
2023-03-11T04:27:50.018Z,6.82
2023-03-11T04:32:52.247Z,7.45
2023-03-11T04:37:53.955Z,7.80
2023-03-11T04:42:56.742Z,10.65
2023-03-11T04:47:59.106Z,8.35
2023-03-11T04:53:01.395Z,11.70
2023-03-11T04:58:04.162Z,10.05
2023-03-11T05:03:06.243Z,9.13
2023-03-11T05:08:08.286Z,8.07
2023-03-11T05:13:10.667Z,9.02
2023-03-11T05:18:15.146Z,8.80
2023-03-11T05:23:17.034Z,8.68
2023-03-11T05:28:18.751Z,7.82
2023-03-11T05:33:25.092Z,8.35
2023-03-11T05:38:27.921Z,9.55
2023-03-11T05:43:29.817Z,10.95
2023-03-11T05:48:31.638Z,7.07
2023-03-11T05:53:33.363Z,9.88
2023-03-11T05:58:35.245Z,10.98
2023-03-11T06:03:39.445Z,11.45
2023-03-11T06:08:46.036Z,12.93
2023-03-11T06:13:47.845Z,12.40
2023-03-11T06:18:49.699Z,15.23
2023-03-11T06:23:51.457Z,12.77
2023-03-11T06:28:53.673Z,10.27
2023-03-11T06:33:56.115Z,11.02
2023-03-11T06:38:58.327Z,14.98
2023-03-11T06:44:01.676Z,11.50
2023-03-11T06:49:03.834Z,12.63
2023-03-11T06:54:06.814Z,12.75
2023-03-11T06:59:09.090Z,13.52
2023-03-11T07:04:11.004Z,14.60
2023-03-11T07:09:15.422Z,13.60
2023-03-11T07:14:19.866Z,13.00
2023-03-11T07:19:26.183Z,13.30
2023-03-11T07:24:27.808Z,11.98
2023-03-11T07:29:29.426Z,13.30
2023-03-11T07:34:31.049Z,13.38
2023-03-11T07:39:32.692Z,9.55
2023-03-11T07:44:34.472Z,14.60
2023-03-11T07:49:36.111Z,14.10
2023-03-11T07:54:37.772Z,13.95
2023-03-11T07:59:39.393Z,17.67
2023-03-11T08:04:41.063Z,19.42
2023-03-11T08:09:42.728Z,12.68
2023-03-11T08:14:44.382Z,16.23
2023-03-11T08:19:46.019Z,15.10
2023-03-11T08:24:51.907Z,15.00
2023-03-11T08:29:53.538Z,14.15
2023-03-11T08:34:55.248Z,14.38
2023-03-11T08:39:57.313Z,14.63
2023-03-11T08:44:58.978Z,12.40
2023-03-11T08:50:00.647Z,12.18
2023-03-11T08:55:02.530Z,11.93
2023-03-11T09:00:07.218Z,11.15
2023-03-11T09:05:09.697Z,11.73
2023-03-11T09:10:16.571Z,11.10
2023-03-11T09:15:18.265Z,13.43
2023-03-11T09:20:20.449Z,12.57
2023-03-11T09:25:22.105Z,14.15
2023-03-11T09:30:23.778Z,11.45
2023-03-11T09:35:25.478Z,11.95
2023-03-11T09:40:32.823Z,11.50
2023-03-11T09:45:39.518Z,14.20
2023-03-11T09:50:53.755Z,10.80
2023-03-11T09:55:58.296Z,10.07
2023-03-11T10:01:00.764Z,9.88
2023-03-11T10:06:15.680Z,12.93
2023-03-11T10:11:23.973Z,9.20
2023-03-11T10:16:38.601Z,11.40
2023-03-11T10:21:59.313Z,12.70
2023-03-11T10:27:06.734Z,8.90
2023-03-11T10:32:42.471Z,10.82
2023-03-11T10:37:51.803Z,12.80
2023-03-11T10:42:57.516Z,10.88
2023-03-11T10:47:59.194Z,11.18
2023-03-11T10:53:10.784Z,9.38
2023-03-11T10:58:15.878Z,10.15
2023-03-11T11:03:23.721Z,10.45
2023-03-11T11:08:25.496Z,8.45
2023-03-11T11:13:34.503Z,9.75
2023-03-11T11:18:49.414Z,10.48
2023-03-11T11:24:24.197Z,8.88
2023-03-11T11:29:25.820Z,7.22
2023-03-11T11:34:35.022Z,7.85
2023-03-11T11:39:51.792Z,7.32
2023-03-11T11:45:00.438Z,7.20
2023-03-11T11:50:07.028Z,9.38
2023-03-11T11:55:20.787Z,7.05
2023-03-11T12:00:45.929Z,7.32
2023-03-11T12:06:00.293Z,7.85
2023-03-11T12:11:06.368Z,7.32
2023-03-11T12:16:14.106Z,5.75
2023-03-11T12:21:44.186Z,7.65
2023-03-11T12:26:49.255Z,6.28
2023-03-11T12:31:51.746Z,6.15
2023-03-11T12:36:55.694Z,8.38
2023-03-11T12:42:21.288Z,7.15
2023-03-11T12:47:25.099Z,7.07
2023-03-11T12:52:28.635Z,12.07
2023-03-11T12:57:40.108Z,7.18
2023-03-11T13:03:00.604Z,6.78
2023-03-11T13:08:17.717Z,7.22
2023-03-11T13:13:26.374Z,5.45
2023-03-11T13:18:30.611Z,6.05
2023-03-11T13:23:37.825Z,5.75
2023-03-11T13:29:31.176Z,7.63
2023-03-11T13:35:01.626Z,6.15
2023-03-11T13:40:15.992Z,7.05
2023-03-11T13:45:35.836Z,5.38
2023-03-11T13:50:41.736Z,4.45
2023-03-11T13:55:47.023Z,4.07
2023-03-11T14:00:51.710Z,5.18
2023-03-11T14:06:00.634Z,4.78
2023-03-11T14:11:12.142Z,17.38
2023-03-11T14:16:20.293Z,6.28
2023-03-11T14:21:23.089Z,9.80
2023-03-11T14:26:29.566Z,9.13
2023-03-11T14:31:33.979Z,5.55
2023-03-11T14:36:44.686Z,4.90
2023-03-11T14:41:46.491Z,5.60
2023-03-11T14:46:49.798Z,5.80
2023-03-11T14:52:01.482Z,6.63
2023-03-11T14:57:18.199Z,8.50
2023-03-11T15:02:50.936Z,5.15
2023-03-11T15:07:59.241Z,5.63
2023-03-11T15:13:10.485Z,5.85
2023-03-11T15:18:23.598Z,4.70
2023-03-11T15:23:25.245Z,6.30
2023-03-11T15:28:32.169Z,6.00
2023-03-11T15:33:34.272Z,5.95
2023-03-11T15:38:35.889Z,5.82
2023-03-11T15:43:48.524Z,5.60
2023-03-11T15:48:50.186Z,5.60
2023-03-11T15:53:51.804Z,5.00
2023-03-11T15:58:53.419Z,6.15
2023-03-11T16:03:55.949Z,7.35
2023-03-11T16:08:57.567Z,5.72
2023-03-11T16:13:59.718Z,5.80
2023-03-11T16:19:01.365Z,6.90
2023-03-11T16:24:04.681Z,8.13
2023-03-11T16:29:18.601Z,5.55
2023-03-11T16:34:21.364Z,7.30
2023-03-11T16:39:22.962Z,9.32
2023-03-11T16:44:24.608Z,8.40
2023-03-11T16:49:26.252Z,6.95
2023-03-11T16:54:27.869Z,6.53
2023-03-11T16:59:30.112Z,8.27
2023-03-11T17:04:31.891Z,10.98
2023-03-11T17:09:35.558Z,9.63
2023-03-11T17:14:37.198Z,8.57
2023-03-11T17:19:38.877Z,7.07
2023-03-11T17:24:40.624Z,9.35
2023-03-11T17:29:42.232Z,7.90
2023-03-11T17:34:43.917Z,7.68
2023-03-11T17:39:45.594Z,8.13
2023-03-11T17:44:51.857Z,11.80
2023-03-11T17:49:54.336Z,8.70
2023-03-11T17:54:56.633Z,8.65
2023-03-11T18:00:04.189Z,10.48
2023-03-11T18:05:07.112Z,11.75
2023-03-11T18:10:09.839Z,9.38
2023-03-11T18:15:18.248Z,8.77
2023-03-11T18:20:20.442Z,11.95
2023-03-11T18:25:22.050Z,8.05
2023-03-11T18:30:23.871Z,7.07
2023-03-11T18:35:25.466Z,10.70
2023-03-11T18:40:27.984Z,8.35
2023-03-11T18:45:29.736Z,9.20
2023-03-11T18:50:31.355Z,8.90
2023-03-11T18:55:35.437Z,11.43
2023-03-11T19:00:37.137Z,10.48
2023-03-11T19:05:38.766Z,11.45
2023-03-11T19:10:42.378Z,12.88
2023-03-11T19:15:44.016Z,11.35
2023-03-11T19:20:45.624Z,10.40
2023-03-11T19:26:00.692Z,12.98
2023-03-11T19:31:05.483Z,12.32
2023-03-11T19:36:08.498Z,10.20
2023-03-11T19:41:19.016Z,11.70
2023-03-11T19:46:22.314Z,13.27
2023-03-11T19:51:26.663Z,12.90
2023-03-11T19:56:30.054Z,12.00
2023-03-11T20:01:31.763Z,10.93
2023-03-11T20:06:33.509Z,10.77
2023-03-11T20:11:39.708Z,15.73
2023-03-11T20:16:41.552Z,8.52
2023-03-11T20:21:45.712Z,7.47
2023-03-11T20:26:50.046Z,10.73
2023-03-11T20:31:53.015Z,12.90
2023-03-11T20:36:54.774Z,7.68
2023-03-11T20:41:56.383Z,13.27
2023-03-11T20:46:58.049Z,12.55
2023-03-11T20:52:01.267Z,12.40
2023-03-11T20:57:02.994Z,11.65
2023-03-11T21:02:06.499Z,14.07
2023-03-11T21:07:08.278Z,13.73
2023-03-11T21:12:09.946Z,10.87
2023-03-11T21:17:11.760Z,12.40
2023-03-11T21:22:13.561Z,12.25
2023-03-11T21:27:15.283Z,12.52
2023-03-11T21:32:16.994Z,11.65
2023-03-11T21:37:18.713Z,10.73
2023-03-11T21:42:20.848Z,11.80
2023-03-11T21:47:22.467Z,10.20
2023-03-11T21:52:24.059Z,17.35
2023-03-11T21:57:25.799Z,12.33
2023-03-11T22:02:27.496Z,12.00
2023-03-11T22:07:29.122Z,12.23
2023-03-11T22:12:30.780Z,13.13
2023-03-11T22:17:32.434Z,7.70
2023-03-11T22:22:34.128Z,13.00
2023-03-11T22:27:36.137Z,9.27
2023-03-11T22:32:37.817Z,13.25
2023-03-11T22:37:39.418Z,9.90
2023-03-11T22:42:41.122Z,9.18
2023-03-11T22:47:42.711Z,9.82
2023-03-11T22:52:44.315Z,11.68
2023-03-11T22:57:45.961Z,8.18
2023-03-11T23:02:49.407Z,8.35
2023-03-11T23:07:51.566Z,8.98
2023-03-11T23:12:53.193Z,5.63
2023-03-11T23:17:54.820Z,11.97
2023-03-11T23:22:56.456Z,17.73
2023-03-11T23:27:58.070Z,8.77
2023-03-11T23:33:02.526Z,12.20
2023-03-11T23:38:04.116Z,8.27
2023-03-11T23:43:05.819Z,6.57
2023-03-11T23:48:07.441Z,8.00
2023-03-11T23:53:09.053Z,8.10
2023-03-11T23:58:10.843Z,5.82
